Time;durP1;ratioP1;P1;durP2;ratioP2;P2;SDS_P1;SDS_P2;PMS_P1;PMS_P2;Temp;Humidity;BMP_temperature;BMP_pressure;BME280_temperature;BME280_humidity;BME280_pressure;Samples;Min_cycle;Max_cycle;Signal;HPM_P1;HPM_P2
2023/03/25 00:00:13;;;;;;;0.15;0.15;;;;;;;12.09;59.08;100165.06;5081898;28;20052;-83
2023/03/25 00:02:39;;;;;;;0.10;0.10;;;;;;;12.03;59.41;100170.59;5079721;28;20021;-83
2023/03/25 00:05:06;;;;;;;0.10;0.10;;;;;;;11.92;59.24;100174.47;5086007;28;20050;-82
2023/03/25 00:07:32;;;;;;;0.08;0.08;;;;;;;11.89;59.29;100173.72;5084828;28;20032;-85
2023/03/25 00:09:58;;;;;;;0.10;0.10;;;;;;;12.03;59.16;100165.28;5089785;28;20093;-82
2023/03/25 00:12:25;;;;;;;0.10;0.10;;;;;;;11.88;59.63;100178.16;5085624;28;20048;-84
2023/03/25 00:14:54;;;;;;;0.10;0.10;;;;;;;11.90;59.69;100176.31;5088876;28;20351;-83
2023/03/25 00:17:22;;;;;;;0.00;0.00;;;;;;;11.97;59.48;100188.50;5083599;28;20024;-85
2023/03/25 00:19:49;;;;;;;0.75;0.75;;;;;;;11.83;59.69;100158.88;5075063;28;20503;-85
2023/03/25 00:22:16;;;;;;;0.10;0.10;;;;;;;11.91;59.41;100178.06;5086632;28;20245;-84
2023/03/25 00:24:43;;;;;;;0.10;0.10;;;;;;;11.72;60.08;100176.97;5086685;28;20029;-85
2023/03/25 00:27:09;;;;;;;0.10;0.10;;;;;;;11.76;59.99;100158.25;5080567;28;20036;-84
2023/03/25 00:29:35;;;;;;;1.13;1.13;;;;;;;11.87;59.49;100165.78;5087343;28;20080;-83
2023/03/25 00:32:01;;;;;;;0.10;0.10;;;;;;;11.93;59.39;100156.75;5073214;28;20025;-84
2023/03/25 00:34:27;;;;;;;0.10;0.10;;;;;;;11.85;59.41;100158.81;5080684;28;20068;-83
2023/03/25 00:36:55;;;;;;;1.95;1.85;;;;;;;11.92;59.82;100150.56;5084532;28;20048;-83
2023/03/25 00:39:21;;;;;;;0.13;0.13;;;;;;;11.82;59.59;100170.41;5079051;28;20618;-85
2023/03/25 00:41:47;;;;;;;0.10;0.10;;;;;;;11.91;59.42;100155.94;5079242;28;20019;-85
2023/03/25 00:44:16;;;;;;;1.65;0.75;;;;;;;11.87;58.94;100162.28;5074501;28;20425;-83
2023/03/25 00:46:42;;;;;;;0.00;0.00;;;;;;;11.75;59.84;100150.31;5083568;28;20058;-81
2023/03/25 00:49:09;;;;;;;0.10;0.10;;;;;;;11.76;59.73;100155.59;5081237;28;20032;-85
2023/03/25 00:51:35;;;;;;;0.95;0.93;;;;;;;11.81;59.31;100155.41;5088740;28;20032;-84
2023/03/25 00:54:02;;;;;;;0.10;0.10;;;;;;;11.84;59.63;100160.63;5088811;28;20039;-85
2023/03/25 00:56:29;;;;;;;0.20;0.20;;;;;;;11.82;59.09;100159.78;5081300;28;20044;-85
2023/03/25 00:58:56;;;;;;;0.10;0.10;;;;;;;11.89;58.65;100157.81;5092222;28;20032;-85
2023/03/25 01:01:26;;;;;;;0.10;0.10;;;;;;;11.87;59.27;100157.84;5087885;28;20020;-85
2023/03/25 01:03:58;;;;;;;0.10;0.10;;;;;;;11.87;58.78;100170.25;5084339;28;20059;-84
2023/03/25 01:06:31;;;;;;;0.20;0.20;;;;;;;11.78;59.55;100158.19;5081723;28;20026;-82
2023/03/25 01:08:59;;;;;;;0.10;0.10;;;;;;;11.87;58.93;100155.19;5083729;28;20028;-82
2023/03/25 01:11:28;;;;;;;0.15;0.15;;;;;;;11.84;59.18;100155.31;5081147;28;20026;-82
2023/03/25 01:13:56;;;;;;;0.10;0.10;;;;;;;11.85;59.41;100157.03;5084687;28;20097;-82
2023/03/25 01:16:23;;;;;;;1.50;1.40;;;;;;;11.95;59.63;100139.84;5085314;28;20040;-83
2023/03/25 01:18:49;;;;;;;0.08;0.08;;;;;;;11.77;59.74;100153.78;5081441;28;20036;-82
2023/03/25 01:21:16;;;;;;;0.13;0.13;;;;;;;11.86;60.65;100142.81;5085042;28;20008;-85
2023/03/25 01:23:42;;;;;;;0.00;0.00;;;;;;;11.69;61.97;100155.84;5086925;28;20028;-84
2023/03/25 01:26:08;;;;;;;0.10;0.10;;;;;;;11.49;63.76;100139.72;5083650;28;20032;-83
2023/03/25 01:28:35;;;;;;;0.10;0.10;;;;;;;11.39;63.97;100153.34;5082302;28;20183;-83
2023/03/25 01:31:03;;;;;;;0.28;0.28;;;;;;;11.30;64.66;100160.72;5078738;28;20508;-82
2023/03/25 01:33:31;;;;;;;0.10;0.10;;;;;;;11.08;65.91;100159.69;5082306;28;20027;-83
2023/03/25 01:35:58;;;;;;;0.57;0.57;;;;;;;10.99;66.02;100160.84;5070778;28;20154;-84
2023/03/25 01:38:25;;;;;;;0.10;0.10;;;;;;;10.91;65.93;100162.91;5077665;28;20032;-85
2023/03/25 01:40:52;;;;;;;0.10;0.10;;;;;;;10.91;66.64;100158.44;5071768;28;20025;-86
2023/03/25 01:43:20;;;;;;;0.52;0.52;;;;;;;10.84;67.18;100147.19;5074500;28;20038;-84
2023/03/25 01:45:46;;;;;;;0.10;0.10;;;;;;;10.84;66.92;100141.91;5080542;28;20048;-84
2023/03/25 01:48:34;;;;;;;0.10;0.10;;;;;;;10.90;67.79;100156.72;5082293;28;20104;-85
2023/03/25 01:51:11;;;;;;;0.10;0.10;;;;;;;10.82;67.50;100142.88;5085153;28;20032;-82
2023/03/25 01:53:39;;;;;;;0.20;0.20;;;;;;;10.79;68.21;100153.53;5074120;28;20036;-83
2023/03/25 01:56:06;;;;;;;0.10;0.10;;;;;;;10.58;68.34;100148.03;5077706;28;20025;-84
2023/03/25 01:58:34;;;;;;;0.20;0.20;;;;;;;10.71;68.16;100150.28;5077993;28;20092;-84
2023/03/25 02:01:02;;;;;;;3.97;2.28;;;;;;;10.73;68.23;100145.78;5083787;28;20025;-85
2023/03/25 02:03:35;;;;;;;0.10;0.10;;;;;;;10.76;68.31;100148.34;5082605;28;20028;-86
2023/03/25 02:06:06;;;;;;;0.20;0.20;;;;;;;10.84;67.52;100148.97;5077520;28;20084;-84
2023/03/25 02:08:38;;;;;;;0.10;0.10;;;;;;;10.77;67.95;100144.81;5079016;28;20032;-85
2023/03/25 02:11:05;;;;;;;0.10;0.10;;;;;;;10.81;68.16;100131.38;5082029;28;20058;-85
2023/03/25 02:13:34;;;;;;;3.33;1.27;;;;;;;10.84;67.71;100133.06;5083219;28;20044;-85
2023/03/25 02:16:17;;;;;;;0.10;0.10;;;;;;;10.74;68.27;100136.94;5079043;28;20024;-85
2023/03/25 02:19:01;;;;;;;0.10;0.10;;;;;;;10.88;67.59;100129.41;5079137;28;20020;-84
2023/03/25 02:25:14;;;;;;;0.10;0.10;;;;;;;10.80;67.93;100134.09;5088089;27;1201753;-85
2023/03/25 02:28:11;;;;;;;32.08;1.55;;;;;;;10.90;67.39;100130.22;5131092;28;20281;-83
2023/03/25 02:34:07;;;;;;;0.10;0.10;;;;;;;10.95;67.14;100130.06;5122822;27;1188789;-85
2023/03/25 02:39:17;;;;;;;0.00;0.00;;;;;;;11.02;67.16;100136.06;5111801;27;1213813;-85
2023/03/25 02:42:08;;;;;;;0.10;0.10;;;;;;;10.97;67.33;100121.16;5135091;27;20131;-83
2023/03/25 02:44:54;;;;;;;0.10;0.10;;;;;;;10.98;67.49;100116.72;5137648;27;20023;-85
2023/03/25 02:47:25;;;;;;;0.10;0.10;;;;;;;11.04;66.88;100113.88;5132976;28;20024;-85
2023/03/25 02:49:57;;;;;;;0.10;0.10;;;;;;;10.99;66.92;100119.31;5129683;27;20105;-86
2023/03/25 02:52:28;;;;;;;0.10;0.10;;;;;;;10.95;67.43;100117.69;5138114;27;20050;-85
2023/03/25 02:55:00;;;;;;;0.00;0.00;;;;;;;11.02;67.55;100114.84;5122851;28;20540;-83
2023/03/25 02:57:30;;;;;;;0.10;0.10;;;;;;;11.04;67.21;100113.00;5134497;27;20066;-82
2023/03/25 02:59:58;;;;;;;0.10;0.10;;;;;;;10.95;67.73;100111.50;5130552;27;20031;-82
2023/03/25 03:02:31;;;;;;;0.10;0.10;;;;;;;11.05;67.68;100104.13;5140357;27;20031;-83
2023/03/25 03:04:57;;;;;;;;;;;;;;;11.06;67.66;100108.50;5134242;27;20028;-83
2023/03/25 03:07:27;;;;;;;0.10;0.10;;;;;;;11.07;67.21;100110.25;5129218;28;19915;-83
2023/03/25 03:10:18;;;;;;;0.10;0.10;;;;;;;10.95;67.94;100107.09;5126464;27;20053;-82
2023/03/25 03:18:41;;;;;;;3.97;1.10;;;;;;;11.04;67.39;100084.72;5112065;27;1202403;-83
2023/03/25 03:21:22;;;;;;;0.10;0.10;;;;;;;11.00;67.92;100094.56;5126029;27;20035;-83
2023/03/25 03:23:56;;;;;;;0.10;0.10;;;;;;;10.87;68.66;100090.56;5122006;27;20039;-84
2023/03/25 03:29:11;;;;;;;0.10;0.10;;;;;;;10.92;69.27;100090.44;5102014;28;20381;-84
2023/03/25 03:31:46;;;;;;;3.55;1.52;;;;;;;10.83;69.43;100099.56;5081462;28;20032;-85
2023/03/25 03:34:25;;;;;;;0.10;0.10;;;;;;;10.84;70.07;100085.34;5071530;28;20485;-85
2023/03/25 03:36:54;;;;;;;1.77;1.65;;;;;;;10.74;70.83;100070.69;5069552;28;20025;-84
2023/03/25 03:39:30;;;;;;;0.10;0.10;;;;;;;10.66;70.68;100085.06;5075609;28;20092;-85
2023/03/25 03:42:04;;;;;;;0.10;0.10;;;;;;;10.59;71.56;100075.59;5077899;28;20037;-85
2023/03/25 03:44:34;;;;;;;0.00;0.00;;;;;;;10.44;72.22;100097.25;5074167;28;20021;-84
2023/03/25 03:49:43;;;;;;;0.10;0.10;;;;;;;10.45;72.33;100086.59;5110424;27;1179300;-82
2023/03/25 03:52:20;;;;;;;0.43;0.43;;;;;;;10.45;72.30;100088.41;5121408;28;20031;-83
2023/03/25 03:55:09;;;;;;;0.10;0.10;;;;;;;10.40;73.08;100092.97;5124358;28;20505;-82
2023/03/25 03:57:42;;;;;;;0.10;0.10;;;;;;;10.34;72.95;100100.16;5120059;28;20069;-83
2023/03/25 04:00:24;;;;;;;0.10;0.10;;;;;;;10.34;73.16;100099.28;5120172;28;20024;-84
2023/03/25 04:05:33;;;;;;;0.10;0.10;;;;;;;10.21;74.01;100098.81;5085698;27;20748;-83
2023/03/25 04:08:10;;;;;;;0.10;0.10;;;;;;;10.23;74.33;100104.06;5071371;28;20413;-85
2023/03/25 04:10:51;;;;;;;0.10;0.10;;;;;;;10.31;73.85;100097.59;5061641;28;20540;-85
2023/03/25 04:13:19;;;;;;;3.00;0.90;;;;;;;10.17;74.56;100107.75;5067026;28;20029;-85
2023/03/25 04:15:47;;;;;;;0.10;0.10;;;;;;;10.14;74.38;100107.84;5059649;28;20064;-85
2023/03/25 04:18:13;;;;;;;0.20;0.20;;;;;;;10.13;74.21;100090.22;5063447;28;20040;-85
2023/03/25 04:20:43;;;;;;;0.10;0.10;;;;;;;10.23;73.89;100097.00;5061039;28;20029;-84
2023/03/25 04:23:15;;;;;;;0.10;0.10;;;;;;;10.12;73.58;100099.06;5067532;28;20029;-85
2023/03/25 04:25:42;;;;;;;0.10;0.10;;;;;;;10.20;73.61;100091.78;5063686;28;20443;-85
2023/03/25 04:28:12;;;;;;;0.10;0.10;;;;;;;10.12;73.38;100093.78;5069055;28;20059;-85
2023/03/25 04:30:39;;;;;;;1.20;1.13;;;;;;;10.22;72.86;100092.59;5067187;28;20028;-86
2023/03/25 04:33:05;;;;;;;0.10;0.10;;;;;;;10.25;72.21;100092.50;5061126;28;20024;-85
2023/03/25 04:35:32;;;;;;;0.10;0.10;;;;;;;10.31;72.09;100092.31;5070162;28;20032;-85
2023/03/25 04:37:59;;;;;;;0.10;0.10;;;;;;;10.26;71.54;100091.59;5054763;28;20054;-85
2023/03/25 04:40:25;;;;;;;3.92;2.55;;;;;;;10.34;71.27;100084.28;5062744;28;20510;-84
2023/03/25 04:42:52;;;;;;;1.98;1.88;;;;;;;10.24;70.94;100104.00;5056425;28;20400;-84
2023/03/25 04:45:20;;;;;;;0.10;0.10;;;;;;;10.38;71.05;100084.22;5060832;28;20035;-85
2023/03/25 04:47:48;;;;;;;0.10;0.10;;;;;;;10.32;71.07;100107.28;5055948;28;20033;-85
2023/03/25 04:52:53;;;;;;;0.10;0.10;;;;;;;10.45;70.30;100115.75;5078907;28;20396;-83
2023/03/25 04:55:20;;;;;;;0.10;0.10;;;;;;;10.54;70.09;100127.81;5073498;28;20052;-82
2023/03/25 04:57:47;;;;;;;0.10;0.10;;;;;;;10.44;70.03;100118.44;5071551;28;20029;-84
2023/03/25 05:00:16;;;;;;;2.88;0.77;;;;;;;10.58;69.57;100118.00;5068883;28;20033;-82
2023/03/25 05:02:47;;;;;;;0.80;0.80;;;;;;;10.61;69.80;100110.81;5071787;28;20025;-83
2023/03/25 05:05:17;;;;;;;0.32;0.32;;;;;;;10.62;69.09;100127.59;5066563;28;20021;-83
2023/03/25 05:07:45;;;;;;;0.10;0.10;;;;;;;10.62;68.91;100127.59;5058884;28;20035;-82
2023/03/25 05:10:12;;;;;;;0.10;0.10;;;;;;;10.61;68.55;100126.72;5055509;28;20044;-82
2023/03/25 05:12:38;;;;;;;0.10;0.10;;;;;;;10.61;68.50;100124.06;5060171;28;20031;-81
2023/03/25 05:15:06;;;;;;;0.22;0.22;;;;;;;10.65;68.58;100131.03;5063190;28;20035;-82
2023/03/25 05:17:32;;;;;;;0.43;0.40;;;;;;;10.66;68.55;100121.28;5058013;28;21816;-82
2023/03/25 05:19:58;;;;;;;1.70;1.60;;;;;;;10.62;68.42;100130.25;5056881;28;20111;-82
2023/03/25 05:22:24;;;;;;;0.20;0.20;;;;;;;10.72;67.94;100118.44;5066993;28;20025;-83
2023/03/25 05:24:52;;;;;;;0.65;0.65;;;;;;;10.63;67.67;100116.94;5062187;28;20156;-85
2023/03/25 05:27:19;;;;;;;0.30;0.30;;;;;;;10.66;67.95;100148.63;5064897;28;20051;-83
2023/03/25 05:29:45;;;;;;;0.15;0.15;;;;;;;10.56;67.76;100141.91;5062402;28;20047;-86
2023/03/25 05:32:16;;;;;;;0.10;0.10;;;;;;;10.50;67.52;100131.50;5069887;28;20023;-83
2023/03/25 05:34:45;;;;;;;0.30;0.30;;;;;;;10.62;67.38;100122.31;5065560;28;20048;-84
2023/03/25 05:37:12;;;;;;;0.10;0.10;;;;;;;10.62;66.99;100131.13;5070031;28;20021;-85
2023/03/25 05:39:39;;;;;;;0.10;0.10;;;;;;;10.48;67.03;100114.78;5065531;28;20028;-81
2023/03/25 05:42:05;;;;;;;0.17;0.17;;;;;;;10.59;66.80;100128.56;5065103;28;20049;-82
2023/03/25 05:44:31;;;;;;;0.10;0.10;;;;;;;10.48;66.90;100138.59;5067692;28;20032;-83
2023/03/25 05:47:01;;;;;;;0.25;0.25;;;;;;;10.45;67.05;100134.28;5065621;28;20044;-84
2023/03/25 05:49:30;;;;;;;0.63;0.63;;;;;;;10.57;67.00;100138.34;5069237;28;20123;-81
2023/03/25 05:51:56;;;;;;;0.10;0.10;;;;;;;10.54;66.50;100148.16;5074754;28;20036;-83
2023/03/25 05:54:23;;;;;;;0.10;0.10;;;;;;;10.56;66.72;100149.00;5070667;28;20052;-82
2023/03/25 05:56:50;;;;;;;0.10;0.10;;;;;;;10.64;66.58;100133.72;5073052;28;20481;-84
2023/03/25 05:59:16;;;;;;;1.00;1.00;;;;;;;10.59;66.29;100130.34;5076266;28;20025;-81
2023/03/25 06:01:44;;;;;;;0.28;0.28;;;;;;;10.65;66.69;100157.53;5071812;28;20074;-79
2023/03/25 06:04:12;;;;;;;0.10;0.10;;;;;;;10.61;66.43;100170.91;5055693;28;20254;-82
2023/03/25 06:06:40;;;;;;;0.10;0.10;;;;;;;10.66;66.82;100161.03;5065166;28;20055;-84
2023/03/25 06:09:07;;;;;;;1.73;1.65;;;;;;;10.71;66.16;100147.66;5064856;28;20032;-82
2023/03/25 06:11:36;;;;;;;2.65;1.65;;;;;;;10.84;66.54;100164.88;5066530;28;20032;-81
2023/03/25 06:14:04;;;;;;;0.10;0.10;;;;;;;10.77;66.84;100176.59;5058363;28;20156;-82
2023/03/25 06:16:31;;;;;;;0.80;0.80;;;;;;;10.74;67.14;100160.78;5059331;28;20421;-84
2023/03/25 06:18:59;;;;;;;0.10;0.10;;;;;;;10.72;67.45;100152.03;5068053;28;20029;-83
2023/03/25 06:21:27;;;;;;;0.10;0.10;;;;;;;10.56;68.09;100168.38;5055316;28;20032;-84
2023/03/25 06:23:53;;;;;;;0.20;0.20;;;;;;;10.54;68.08;100156.09;5063328;28;20032;-83
2023/03/25 06:26:22;;;;;;;0.10;0.10;;;;;;;10.61;67.58;100163.81;5063029;28;20020;-85
2023/03/25 06:28:48;;;;;;;0.20;0.20;;;;;;;10.54;67.79;100159.63;5061931;28;20025;-83
2023/03/25 06:31:16;;;;;;;1.13;1.13;;;;;;;10.51;67.86;100178.25;5064574;28;20024;-81
2023/03/25 06:33:43;;;;;;;0.10;0.10;;;;;;;10.38;68.05;100159.25;5068897;28;20037;-83
2023/03/25 06:36:11;;;;;;;0.10;0.10;;;;;;;10.60;67.97;100172.66;5058475;28;20021;-81
2023/03/25 06:38:38;;;;;;;0.20;0.20;;;;;;;10.59;67.85;100173.59;5065020;28;20089;-82
2023/03/25 06:41:06;;;;;;;0.10;0.10;;;;;;;10.66;67.66;100161.03;5067846;28;20044;-84
2023/03/25 06:43:32;;;;;;;0.10;0.10;;;;;;;10.64;67.20;100165.50;5058241;28;20029;-81
2023/03/25 06:45:59;;;;;;;0.10;0.10;;;;;;;10.61;67.26;100182.34;5064618;28;20033;-86
2023/03/25 06:48:25;;;;;;;0.10;0.10;;;;;;;10.74;66.78;100171.38;5058853;28;20433;-85
2023/03/25 06:50:52;;;;;;;2.67;2.55;;;;;;;10.80;66.74;100181.78;5051636;28;20057;-83
2023/03/25 06:53:18;;;;;;;0.68;0.68;;;;;;;10.76;67.12;100175.72;5059271;28;20047;-83
2023/03/25 06:55:44;;;;;;;0.20;0.20;;;;;;;10.75;66.77;100192.53;5051193;28;20033;-81
2023/03/25 06:58:11;;;;;;;0.10;0.10;;;;;;;10.63;66.94;100188.47;5059003;28;20088;-84
2023/03/25 07:00:37;;;;;;;1.15;1.10;;;;;;;10.73;66.47;100185.53;5053331;28;20044;-82
2023/03/25 07:03:04;;;;;;;0.10;0.10;;;;;;;10.90;66.26;100177.06;5072834;28;20039;-81
2023/03/25 07:05:30;;;;;;;0.10;0.10;;;;;;;10.98;66.39;100191.81;5055348;28;20083;-81
2023/03/25 07:07:57;;;;;;;0.47;0.47;;;;;;;10.94;65.89;100221.97;5062077;28;20037;-81
2023/03/25 07:10:24;;;;;;;0.10;0.10;;;;;;;11.00;65.57;100205.88;5069261;28;20028;-82
2023/03/25 07:12:50;;;;;;;0.63;0.63;;;;;;;11.02;65.48;100187.28;5054845;28;20041;-82
2023/03/25 07:15:16;;;;;;;0.20;0.20;;;;;;;11.02;65.09;100189.91;5065046;28;20025;-81
2023/03/25 07:17:42;;;;;;;0.10;0.10;;;;;;;11.02;65.10;100197.03;5070093;28;20084;-80
2023/03/25 07:20:09;;;;;;;0.20;0.20;;;;;;;11.08;64.47;100192.38;5073724;28;20024;-81
2023/03/25 07:22:35;;;;;;;0.10;0.10;;;;;;;11.21;64.47;100195.47;5065374;28;20036;-81
2023/03/25 07:25:02;;;;;;;0.57;0.57;;;;;;;11.26;64.40;100205.94;5062275;28;20317;-83
2023/03/25 07:27:28;;;;;;;1.23;1.13;;;;;;;11.18;64.37;100211.50;5057454;28;20040;-84
2023/03/25 07:29:54;;;;;;;0.10;0.10;;;;;;;11.05;64.04;100192.47;5057827;28;20041;-83
2023/03/25 07:32:20;;;;;;;0.10;0.10;;;;;;;11.17;63.51;100197.38;5057000;28;20038;-85
2023/03/25 07:34:46;;;;;;;0.10;0.10;;;;;;;11.25;63.55;100196.25;5061490;28;20034;-85
2023/03/25 07:37:12;;;;;;;0.20;0.20;;;;;;;11.21;63.31;100197.28;5053057;28;20033;-82
2023/03/25 07:39:39;;;;;;;0.10;0.10;;;;;;;11.41;62.94;100199.25;5057930;28;20025;-85
2023/03/25 07:42:06;;;;;;;0.10;0.10;;;;;;;11.26;63.46;100209.44;5063565;28;20028;-81
2023/03/25 07:44:32;;;;;;;1.08;0.45;;;;;;;11.46;62.72;100207.91;5056474;28;20025;-83
2023/03/25 07:46:58;;;;;;;0.10;0.10;;;;;;;11.54;62.58;100207.66;5051569;28;20080;-84
2023/03/25 07:49:24;;;;;;;0.25;0.25;;;;;;;11.31;62.49;100198.69;5057647;28;20101;-82
2023/03/25 07:51:50;;;;;;;0.20;0.20;;;;;;;11.29;62.96;100198.75;5054074;28;20029;-81
2023/03/25 07:54:16;;;;;;;0.17;0.17;;;;;;;11.43;62.27;100211.56;5052406;28;20574;-80
2023/03/25 07:56:42;;;;;;;0.20;0.20;;;;;;;11.50;62.25;100214.84;5053483;28;20059;-79
2023/03/25 07:59:08;;;;;;;0.10;0.10;;;;;;;11.51;62.70;100205.13;5059326;28;20029;-80
2023/03/25 08:01:35;;;;;;;0.10;0.10;;;;;;;11.54;63.61;100202.34;5056305;28;20059;-81
2023/03/25 08:04:01;;;;;;;0.13;0.13;;;;;;;11.49;63.20;100223.75;5061407;28;20033;-81
2023/03/25 08:06:27;;;;;;;0.00;0.00;;;;;;;11.55;63.13;100220.88;5050276;28;20552;-81
2023/03/25 08:08:54;;;;;;;0.32;0.32;;;;;;;11.40;63.37;100213.44;5057820;28;20040;-79
2023/03/25 08:11:20;;;;;;;0.10;0.10;;;;;;;11.37;64.10;100235.63;5052214;28;20091;-83
2023/03/25 08:13:47;;;;;;;0.10;0.10;;;;;;;11.61;63.50;100227.75;5040431;28;20493;-79
2023/03/25 08:16:14;;;;;;;0.20;0.20;;;;;;;11.58;63.62;100228.72;5049674;28;20029;-80
2023/03/25 08:18:43;;;;;;;0.10;0.10;;;;;;;11.55;63.37;100218.25;5037454;28;20055;-82
2023/03/25 08:21:10;;;;;;;0.10;0.10;;;;;;;11.74;62.72;100233.50;5033354;28;20441;-80
2023/03/25 08:23:37;;;;;;;0.10;0.10;;;;;;;11.68;62.46;100233.75;5049345;28;20032;-81
2023/03/25 08:26:04;;;;;;;0.10;0.10;;;;;;;11.90;62.13;100239.16;5038069;28;20044;-81
2023/03/25 08:28:31;;;;;;;0.10;0.10;;;;;;;11.88;62.31;100233.91;5034232;28;20025;-81
2023/03/25 08:31:01;;;;;;;0.10;0.10;;;;;;;12.05;62.38;100229.81;5034721;28;20022;-81
2023/03/25 08:33:32;;;;;;;0.15;0.15;;;;;;;12.02;61.72;100237.88;5034508;28;20104;-80
2023/03/25 08:36:00;;;;;;;1.30;1.30;;;;;;;12.17;61.12;100233.81;5049166;28;20064;-82
2023/03/25 08:38:30;;;;;;;0.40;0.40;;;;;;;12.18;61.62;100225.78;5050122;28;20299;-79
2023/03/25 08:40:58;;;;;;;0.70;0.70;;;;;;;12.18;60.66;100220.47;5041258;28;20055;-79
2023/03/25 08:43:25;;;;;;;0.10;0.10;;;;;;;12.10;61.49;100231.38;5042059;28;20029;-80
2023/03/25 08:45:51;;;;;;;0.20;0.20;;;;;;;12.16;61.37;100250.66;5043360;28;20097;-80
2023/03/25 08:48:21;;;;;;;0.10;0.10;;;;;;;12.01;60.45;100225.53;5045273;28;20039;-78
2023/03/25 08:50:47;;;;;;;0.10;0.10;;;;;;;12.23;60.99;100226.47;5042722;28;20043;-78
2023/03/25 08:53:14;;;;;;;0.10;0.10;;;;;;;12.22;60.12;100230.06;5062477;28;20041;-80
2023/03/25 08:55:40;;;;;;;0.10;0.10;;;;;;;12.34;60.93;100217.28;5047443;28;20028;-80
2023/03/25 08:58:07;;;;;;;0.13;0.13;;;;;;;12.26;60.29;100234.34;5046233;28;20030;-80
2023/03/25 09:00:34;;;;;;;0.35;0.35;;;;;;;12.43;60.70;100240.81;5046171;28;20036;-81
2023/03/25 09:03:02;;;;;;;0.10;0.10;;;;;;;12.36;59.84;100258.78;5051120;28;20029;-81
2023/03/25 09:05:28;;;;;;;0.00;0.00;;;;;;;12.25;60.06;100229.94;5056722;28;20037;-78
2023/03/25 09:07:54;;;;;;;0.10;0.10;;;;;;;12.33;60.18;100242.09;5045044;28;20033;-78
2023/03/25 09:10:21;;;;;;;0.10;0.10;;;;;;;12.53;59.99;100254.63;5044903;28;20053;-79
2023/03/25 09:12:47;;;;;;;0.10;0.10;;;;;;;12.54;59.51;100235.13;5046411;28;20088;-80
2023/03/25 09:15:13;;;;;;;0.77;0.77;;;;;;;12.62;59.46;100230.34;5046592;28;20034;-81
2023/03/25 09:17:41;;;;;;;0.10;0.10;;;;;;;12.67;59.10;100232.84;5045572;28;20101;-81
2023/03/25 09:20:08;;;;;;;0.13;0.13;;;;;;;12.46;59.26;100246.88;5049990;28;20145;-81
2023/03/25 09:22:35;;;;;;;0.10;0.10;;;;;;;12.53;58.64;100239.53;5047707;28;20447;-78
2023/03/25 09:25:02;;;;;;;0.40;0.40;;;;;;;12.62;59.27;100239.22;5054622;28;20151;-80
2023/03/25 09:27:28;;;;;;;0.10;0.10;;;;;;;12.47;58.37;100269.00;5046661;28;20044;-80
2023/03/25 09:29:54;;;;;;;0.10;0.10;;;;;;;12.52;58.23;100275.00;5056055;28;20033;-80
2023/03/25 09:32:20;;;;;;;0.10;0.10;;;;;;;12.42;58.33;100268.31;5045639;28;20113;-80
2023/03/25 09:34:47;;;;;;;0.20;0.20;;;;;;;12.53;58.38;100268.78;5055077;28;20026;-81
2023/03/25 09:37:13;;;;;;;0.38;0.38;;;;;;;12.58;58.52;100269.47;5044748;28;20100;-80
2023/03/25 09:39:39;;;;;;;0.05;0.05;;;;;;;12.81;58.18;100246.47;5048963;28;20077;-81
2023/03/25 09:42:27;;;;;;;0.03;0.03;;;;;;;13.06;57.75;100248.13;5050856;28;20033;-82
2023/03/25 09:47:32;;;;;;;0.47;0.40;;;;;;;12.88;56.80;100244.44;5074562;28;20420;-80
2023/03/25 09:50:02;;;;;;;0.10;0.10;;;;;;;13.17;56.15;100250.38;5075157;28;20032;-80
2023/03/25 09:52:37;;;;;;;2.30;0.73;;;;;;;13.09;55.73;100253.34;5073941;28;20036;-79
2023/03/25 09:55:11;;;;;;;0.25;0.25;;;;;;;13.28;55.78;100253.47;5072488;28;20096;-81
2023/03/25 09:57:47;;;;;;;0.10;0.10;;;;;;;13.30;55.54;100264.91;5062281;28;20035;-80
2023/03/25 10:00:21;;;;;;;0.70;0.70;;;;;;;13.33;55.19;100251.47;5063929;28;20092;-82
2023/03/25 10:03:13;;;;;;;0.20;0.20;;;;;;;13.26;55.06;100277.47;5079309;28;20054;-81
2023/03/25 10:05:54;;;;;;;0.10;0.10;;;;;;;13.48;55.17;100275.78;5082813;28;20017;-82
2023/03/25 10:08:33;;;;;;;0.13;0.13;;;;;;;13.46;54.58;100285.59;5072825;28;20078;-80
2023/03/25 10:11:17;;;;;;;0.10;0.10;;;;;;;13.49;53.07;100262.41;5082236;28;20082;-82
2023/03/25 10:16:58;;;;;;;0.20;0.20;;;;;;;13.52;54.21;100293.34;5085119;27;20419;-78
2023/03/25 10:22:46;;;;;;;0.70;0.70;;;;;;;13.58;53.79;100288.66;5116878;27;1184316;-81
2023/03/25 10:25:19;;;;;;;0.10;0.10;;;;;;;13.64;53.89;100284.84;5130430;28;20127;-84
2023/03/25 10:27:50;;;;;;;0.50;0.50;;;;;;;13.47;53.90;100301.53;5126932;27;20110;-86
2023/03/25 10:33:00;;;;;;;1.67;1.55;;;;;;;13.49;53.65;100283.69;5109051;27;20415;-80
2023/03/25 10:35:34;;;;;;;0.10;0.10;;;;;;;13.57;54.28;100291.34;5090542;28;20032;-82
2023/03/25 10:38:06;;;;;;;0.10;0.10;;;;;;;13.77;53.80;100289.66;5094130;28;20049;-81
2023/03/25 10:40:38;;;;;;;0.10;0.10;;;;;;;13.82;54.91;100293.88;5084413;28;20040;-77
2023/03/25 10:43:28;;;;;;;1.73;1.63;;;;;;;13.57;53.31;100305.53;5091101;28;20373;-80
2023/03/25 10:46:00;;;;;;;0.55;0.55;;;;;;;13.58;53.61;100331.22;5090979;28;20036;-79
2023/03/25 10:48:30;;;;;;;0.10;0.10;;;;;;;13.39;54.10;100351.53;5091174;28;20085;-79
2023/03/25 10:51:18;;;;;;;0.10;0.10;;;;;;;13.36;54.48;100341.84;5088455;28;20709;-80
2023/03/25 10:53:48;;;;;;;0.13;0.13;;;;;;;13.25;53.68;100344.91;5096261;28;20062;-82
2023/03/25 10:56:20;;;;;;;0.10;0.10;;;;;;;13.53;53.93;100319.03;5085046;28;20025;-80
2023/03/25 10:58:51;;;;;;;1.70;1.60;;;;;;;13.76;53.98;100315.44;5088951;28;20093;-80
2023/03/25 11:01:21;;;;;;;0.10;0.10;;;;;;;13.41;54.58;100355.00;5080303;28;20025;-79
2023/03/25 11:03:52;;;;;;;0.10;0.10;;;;;;;13.59;54.61;100322.31;5081735;28;20043;-78
2023/03/25 11:06:28;;;;;;;0.10;0.10;;;;;;;13.61;55.11;100308.94;5095041;28;20035;-81
2023/03/25 11:11:46;;;;;;;0.43;0.43;;;;;;;13.64;54.53;100346.06;5135637;27;20448;-79
2023/03/25 11:14:12;;;;;;;0.10;0.10;;;;;;;13.88;54.46;100344.22;5108909;28;20028;-80
2023/03/25 11:16:44;;;;;;;0.10;0.10;;;;;;;13.68;54.06;100314.88;5109501;28;20093;-81
2023/03/25 11:19:19;;;;;;;0.35;0.35;;;;;;;13.84;54.12;100315.09;5091936;28;20043;-80
2023/03/25 11:23:31;;;;;;;0.10;0.10;;;;;;;13.95;53.89;100335.97;5077497;28;20059;-80
2023/03/25 11:25:12;;;;;;;0.10;0.10;;;;;;;13.97;53.39;100331.41;5066091;28;20574;-79
2023/03/25 11:27:54;;;;;;;2.30;1.38;;;;;;;14.01;52.99;100327.72;5072178;28;20048;-80
2023/03/25 11:30:22;;;;;;;2.80;0.97;;;;;;;14.02;52.26;100350.75;5081308;28;20490;-79
2023/03/25 11:33:13;;;;;;;0.10;0.10;;;;;;;14.15;51.74;100332.44;5086391;28;20040;-79
2023/03/25 11:35:43;;;;;;;0.10;0.10;;;;;;;14.10;51.85;100335.28;5091329;28;20086;-79
2023/03/25 11:38:21;;;;;;;0.22;0.22;;;;;;;14.09;51.63;100365.53;5080165;28;20028;-78
2023/03/25 11:40:54;;;;;;;0.50;0.50;;;;;;;14.07;51.98;100336.28;5081525;28;20063;-79
2023/03/25 11:43:35;;;;;;;0.10;0.10;;;;;;;13.79;52.25;100325.94;5085673;28;20021;-78
2023/03/25 11:46:44;;;;;;;0.10;0.10;;;;;;;13.90;51.79;100336.16;5083877;28;20104;-80
2023/03/25 11:49:13;;;;;;;0.10;0.10;;;;;;;13.81;52.13;100342.72;5071856;28;20040;-78
2023/03/25 11:51:39;;;;;;;0.10;0.10;;;;;;;13.85;52.17;100339.00;5082228;28;20035;-82
2023/03/25 11:54:11;;;;;;;0.10;0.10;;;;;;;13.92;52.96;100344.94;5082069;28;20113;-79
2023/03/25 11:56:41;;;;;;;0.10;0.10;;;;;;;14.01;52.18;100349.03;5083043;28;20090;-79
2023/03/25 11:59:20;;;;;;;0.10;0.10;;;;;;;13.93;52.17;100327.16;5085656;28;20032;-80
2023/03/25 12:01:48;;;;;;;0.55;0.55;;;;;;;14.13;52.79;100327.19;5079539;28;20047;-80
2023/03/25 12:04:19;;;;;;;0.00;0.00;;;;;;;14.08;52.18;100334.47;5082968;28;20083;-78
2023/03/25 12:09:32;;;;;;;0.13;0.13;;;;;;;14.10;51.87;100327.31;5130409;27;21027;-80
2023/03/25 12:15:05;;;;;;;4.75;2.60;;;;;;;14.26;51.43;100332.00;5089854;27;20356;-80
2023/03/25 12:23:23;;;;;;;0.15;0.15;;;;;;;14.39;51.37;100336.72;5121547;27;20327;-79
2023/03/25 12:26:14;;;;;;;0.17;0.17;;;;;;;14.30;51.29;100328.25;5119761;28;20036;-80
2023/03/25 12:31:45;;;;;;;0.10;0.10;;;;;;;14.75;50.69;100329.81;5124219;27;20894;-81